Time;durP1;ratioP1;P1;durP2;ratioP2;P2;SDS_P1;SDS_P2;PMS_P1;PMS_P2;Temp;Humidity;BMP_temperature;BMP_pressure;BME280_temperature;BME280_humidity;BME280_pressure;Samples;Min_cycle;Max_cycle;Signal;HPM_P1;HPM_P2
2021/06/20 00:01:05;;;;;;;;;;;;;;;-142.75;77.20;76267.16;5032675;28;19913;-79
2021/06/20 00:03:31;;;;;;;;;;;;;;;-142.75;77.18;76261.25;5034341;28;20027;-81
2021/06/20 00:06:00;;;;;;;;;;;;;;;-142.75;77.25;76259.28;5033319;28;19964;-80
2021/06/20 00:08:25;;;;;;;;;;;;;;;-142.75;77.26;76237.63;5051530;28;19919;-80
2021/06/20 00:10:51;;;;;;;;;;;;;;;-142.75;77.34;76235.66;5033757;28;20293;-81
2021/06/20 00:13:17;;;;;;;;;;;;;;;-142.75;77.47;76223.84;5033973;28;19955;-80
2021/06/20 00:15:43;;;;;;;;;;;;;;;-142.75;77.49;76215.97;5051656;28;19982;-82
2021/06/20 00:18:08;;;;;;;;;;;;;;;-142.75;77.56;76208.09;5051940;28;19927;-80
2021/06/20 00:20:38;;;;;;;;;;;;;;;-142.75;77.53;76208.09;5032352;28;20544;-82
2021/06/20 00:23:04;;;;;;;;;;;;;;;-142.75;77.56;76204.16;5034191;28;20309;-81
2021/06/20 00:25:29;;;;;;;;;;;;;;;-142.75;77.56;76196.31;5051215;28;19920;-81
2021/06/20 00:27:55;;;;;;;;;;;;;;;-142.75;77.69;76184.50;5051056;28;20011;-79
2021/06/20 00:30:21;;;;;;;;;;;;;;;-142.75;77.78;76174.66;5033480;28;19927;-80
2021/06/20 00:32:47;;;;;;;;;;;;;;;-142.75;77.74;76188.44;5052996;28;19923;-81
2021/06/20 00:35:13;;;;;;;;;;;;;;;-142.75;77.87;76184.50;5052150;28;19958;-79
2021/06/20 00:37:38;;;;;;;;;;;;;;;-142.75;77.89;76184.50;5051968;28;19954;-82
2021/06/20 00:40:05;;;;;;;;;;;;;;;-142.75;77.99;76180.56;5051015;28;19923;-80
2021/06/20 00:42:30;;;;;;;;;;;;;;;-142.75;77.98;76172.69;5033315;28;19990;-78
2021/06/20 00:44:55;;;;;;;;;;;;;;;-142.75;77.98;76170.72;5051330;28;19991;-80
2021/06/20 00:47:20;;;;;;;;;;;;;;;-142.75;78.09;76168.75;5033712;28;20283;-80
2021/06/20 00:49:46;;;;;;;;;;;;;;;-142.75;78.07;76164.81;5051857;28;19982;-78
2021/06/20 00:52:12;;;;;;;;;;;;;;;-142.75;78.01;76176.63;5051150;28;19917;-80
2021/06/20 00:54:37;;;;;;;;;;;;;;;-142.75;77.89;76192.38;5051251;28;19916;-80
2021/06/20 00:57:03;;;;;;;;;;;;;;;-142.75;77.89;76192.38;5033705;28;19916;-79
2021/06/20 00:59:29;;;;;;;;;;;;;;;-142.75;77.76;76200.25;5033532;28;19948;-77
2021/06/20 01:01:54;;;;;;;;;;;;;;;-142.75;77.49;76198.28;5034027;28;19939;-80
2021/06/20 01:04:19;;;;;;;;;;;;;;;-142.75;77.28;76196.31;5034750;28;19919;-79
2021/06/20 01:06:45;;;;;;;;;;;;;;;-142.75;77.32;76206.13;5052224;28;19916;-80
2021/06/20 01:09:10;;;;;;;;;;;;;;;-142.75;77.18;76229.75;5053175;28;19932;-79
2021/06/20 01:11:35;;;;;;;;;;;;;;;-142.75;77.13;76245.50;5034197;28;20496;-79
2021/06/20 01:14:02;;;;;;;;;;;;;;;-142.75;77.16;76239.59;5037701;28;19912;-81
2021/06/20 01:16:28;;;;;;;;;;;;;;;-142.75;77.36;76245.50;5055537;28;19913;-80
2021/06/20 01:18:54;;;;;;;;;;;;;;;-142.75;77.43;76263.22;5055486;28;20340;-80
2021/06/20 01:21:19;;;;;;;;;;;;;;;-142.75;77.30;76282.91;5037249;28;19920;-79
2021/06/20 01:23:44;;;;;;;;;;;;;;;-142.75;77.24;76290.78;5055448;28;19917;-78
2021/06/20 01:26:09;;;;;;;;;;;;;;;-142.75;77.25;76278.97;5054737;28;19912;-79
2021/06/20 01:28:48;;;;;;;;;;;;;;;-142.75;77.22;76275.03;5055020;28;19913;-78
2021/06/20 01:31:13;;;;;;;;;;;;;;;-142.75;77.25;76282.91;5037149;28;19917;-80
2021/06/20 01:33:38;;;;;;;;;;;;;;;-142.75;77.43;76278.97;5036965;28;19913;-79
2021/06/20 01:36:04;;;;;;;;;;;;;;;-142.75;77.64;76278.97;5036720;28;20011;-80
2021/06/20 01:38:29;;;;;;;;;;;;;;;-142.75;77.60;76273.06;5036834;28;19924;-81
2021/06/20 01:40:55;;;;;;;;;;;;;;;-142.75;77.69;76282.91;5036414;28;20374;-77
2021/06/20 01:43:20;;;;;;;;;;;;;;;-142.75;77.75;76290.78;5055385;28;20404;-78
2021/06/20 01:45:45;;;;;;;;;;;;;;;-142.75;77.59;76292.75;5037313;28;19920;-78
2021/06/20 01:48:10;;;;;;;;;;;;;;;-142.75;77.71;76284.88;5036650;28;19913;-79
2021/06/20 01:50:36;;;;;;;;;;;;;;;-142.75;77.71;76269.13;5036092;28;20393;-78
2021/06/20 01:53:11;;;;;;;;;;;;;;;-142.75;77.59;76259.28;5036298;28;20003;-81
2021/06/20 01:55:38;;;;;;;;;;;;;;;-142.75;77.58;76263.22;5052879;28;19920;-80
2021/06/20 01:58:07;;;;;;;;;;;;;;;-142.75;77.48;76247.47;5053690;28;20525;-79
2021/06/20 02:00:33;;;;;;;;;;;;;;;-142.75;77.45;76239.59;5053501;28;20421;-81
2021/06/20 02:03:04;;;;;;;;;;;;;;;-142.75;77.46;76239.59;5034300;28;19913;-81
2021/06/20 02:05:29;;;;;;;;;;;;;;;-142.75;77.56;76227.78;5050740;28;20392;-81
2021/06/20 02:07:54;;;;;;;;;;;;;;;-142.75;77.50;76237.63;5035376;28;20024;-82
2021/06/20 02:10:20;;;;;;;;;;;;;;;-142.75;77.50;76259.28;5034956;28;19919;-79
2021/06/20 02:12:45;;;;;;;;;;;;;;;-142.75;77.63;76275.03;5035602;28;19916;-80
2021/06/20 02:15:11;;;;;;;;;;;;;;;-142.75;77.57;76286.84;5035196;28;19935;-80
2021/06/20 02:17:36;;;;;;;;;;;;;;;-142.75;77.53;76282.91;5035338;28;20007;-80
2021/06/20 02:20:09;;;;;;;;;;;;;;;-142.75;77.46;76271.09;5035121;28;19924;-81
2021/06/20 02:22:34;;;;;;;;;;;;;;;-142.75;77.35;76282.91;5034873;28;19917;-80
2021/06/20 02:25:00;;;;;;;;;;;;;;;-142.75;77.48;76282.91;5052178;28;19920;-81
2021/06/20 02:27:25;;;;;;;;;;;;;;;-142.75;77.56;76265.19;5035012;28;20297;-81
2021/06/20 02:29:52;;;;;;;;;;;;;;;-142.75;77.50;76259.28;5052598;28;20374;-81
2021/06/20 02:32:17;;;;;;;;;;;;;;;-142.75;77.57;76263.22;5052873;28;19912;-80
2021/06/20 02:34:43;;;;;;;;;;;;;;;-142.75;77.50;76275.03;5052809;28;20396;-82
2021/06/20 02:37:09;;;;;;;;;;;;;;;-142.75;77.48;76278.97;5035125;28;20353;-84
2021/06/20 02:39:34;;;;;;;;;;;;;;;-142.75;77.48;76278.97;5035259;28;19923;-82
2021/06/20 02:42:00;;;;;;;;;;;;;;;-142.75;77.49;76271.09;5034478;28;19977;-81
2021/06/20 02:44:26;;;;;;;;;;;;;;;-142.75;77.48;76282.91;5051336;28;20362;-81
2021/06/20 02:46:51;;;;;;;;;;;;;;;-142.75;77.41;76292.75;5052728;28;19912;-82
2021/06/20 02:49:16;;;;;;;;;;;;;;;-142.75;77.43;76298.66;5034642;28;20348;-81
2021/06/20 02:51:44;;;;;;;;;;;;;;;-142.75;77.27;76300.63;5052518;28;19920;-82
2021/06/20 02:54:12;;;;;;;;;;;;;;;-142.75;77.17;76300.63;5035383;28;20393;-82
2021/06/20 02:56:38;;;;;;;;;;;;;;;-142.75;77.31;76304.56;5034734;28;19920;-82
2021/06/20 02:59:03;;;;;;;;;;;;;;;-142.75;77.12;76302.59;5034962;28;19912;-82
2021/06/20 03:01:28;;;;;;;;;;;;;;;-142.75;77.04;76304.56;5052254;28;20352;-83
2021/06/20 03:03:53;;;;;;;;;;;;;;;-142.75;76.99;76290.78;5034803;28;20409;-83
2021/06/20 03:06:19;;;;;;;;;;;;;;;-142.75;76.95;76294.72;5034704;28;20354;-82
2021/06/20 03:08:44;;;;;;;;;;;;;;;-142.75;76.89;76300.63;5034395;28;19960;-81
2021/06/20 03:11:09;;;;;;;;;;;;;;;-142.75;76.83;76298.66;5052126;28;19934;-83
2021/06/20 03:13:34;;;;;;;;;;;;;;;-142.75;76.88;76312.44;5034582;28;19919;-83
2021/06/20 03:15:59;;;;;;;;;;;;;;;-142.75;76.82;76314.41;5034302;28;19945;-83
2021/06/20 03:18:25;;;;;;;;;;;;;;;-142.75;76.79;76318.34;5034278;28;19995;-84
2021/06/20 03:20:50;;;;;;;;;;;;;;;-142.75;76.77;76328.19;5034057;28;20015;-83
2021/06/20 03:23:15;;;;;;;;;;;;;;;-142.75;76.66;76334.09;5034530;28;20007;-83
2021/06/20 03:25:40;;;;;;;;;;;;;;;-142.75;76.82;76349.81;5034471;28;20437;-83
2021/06/20 03:28:06;;;;;;;;;;;;;;;-142.75;77.01;76359.66;5052365;28;19962;-84
2021/06/20 03:30:32;;;;;;;;;;;;;;;-142.75;77.18;76353.78;5033836;28;19920;-84
2021/06/20 03:32:57;;;;;;;;;;;;;;;-142.75;77.22;76349.81;5034259;28;19919;-82
2021/06/20 03:35:22;;;;;;;;;;;;;;;-142.75;77.34;76349.81;5051677;28;19936;-84
2021/06/20 03:37:47;;;;;;;;;;;;;;;-142.75;77.46;76343.94;5034313;28;20487;-82
2021/06/20 03:40:13;;;;;;;;;;;;;;;-142.75;77.71;76343.94;5033963;28;19919;-83
2021/06/20 03:42:38;;;;;;;;;;;;;;;-142.75;77.78;76345.91;5052042;28;19917;-84
2021/06/20 03:45:05;;;;;;;;;;;;;;;-142.75;77.79;76334.09;5034131;28;20188;-84
2021/06/20 03:47:31;;;;;;;;;;;;;;;-142.75;77.77;76332.13;5033846;28;19912;-83
2021/06/20 03:49:57;;;;;;;;;;;;;;;-142.75;77.87;76326.22;5051399;28;19913;-82
2021/06/20 03:52:22;;;;;;;;;;;;;;;-142.75;77.84;76336.06;5051864;28;19983;-84
2021/06/20 03:54:50;;;;;;;;;;;;;;;-142.75;77.92;76340.00;5051823;28;19920;-84
2021/06/20 03:57:15;;;;;;;;;;;;;;;-142.75;77.79;76349.81;5034132;28;19924;-83
2021/06/20 03:59:40;;;;;;;;;;;;;;;-142.75;77.79;76326.22;5051528;28;19912;-81
2021/06/20 04:02:05;;;;;;;;;;;;;;;-142.75;77.75;76330.16;5033586;28;19986;-80
2021/06/20 04:04:31;;;;;;;;;;;;;;;-142.75;77.68;76322.28;5051560;28;19936;-81
2021/06/20 04:06:56;;;;;;;;;;;;;;;-142.75;77.74;76314.41;5033695;28;19929;-80
2021/06/20 04:09:21;;;;;;;;;;;;;;;-142.75;77.61;76310.47;5051380;28;19951;-81
2021/06/20 04:11:47;;;;;;;;;;;;;;;-142.75;77.63;76310.47;5033861;28;19912;-81
2021/06/20 04:14:12;;;;;;;;;;;;;;;-142.75;77.64;76324.25;5033589;28;19974;-81
2021/06/20 04:16:37;;;;;;;;;;;;;;;-142.75;77.56;76314.41;5051256;28;19935;-81
2021/06/20 04:19:02;;;;;;;;;;;;;;;-142.75;77.40;76314.41;5033498;28;19963;-80
2021/06/20 04:21:28;;;;;;;;;;;;;;;-142.75;77.46;76300.63;5033224;28;19916;-81
2021/06/20 04:23:53;;;;;;;;;;;;;;;-142.75;77.37;76288.81;5051357;28;20003;-81
2021/06/20 04:26:19;;;;;;;;;;;;;;;-142.75;77.19;76292.75;5050964;28;19916;-82
2021/06/20 04:28:44;;;;;;;;;;;;;;;-142.75;77.36;76300.63;5033436;28;19955;-83
2021/06/20 04:31:09;;;;;;;;;;;;;;;-142.75;77.20;76298.66;5052160;28;19919;-83
2021/06/20 04:33:34;;;;;;;;;;;;;;;-142.75;77.30;76290.78;5033399;28;20396;-81
2021/06/20 04:35:59;;;;;;;;;;;;;;;-142.75;77.37;76278.97;5051023;28;19920;-83
2021/06/20 04:38:24;;;;;;;;;;;;;;;-142.75;77.38;76267.16;5067760;22;19908;-84
2021/06/20 04:40:55;;;;;;;;;;;;;;;-142.75;77.36;76243.53;5052332;28;20523;-82
2021/06/20 04:46:09;;;;;;;;;;;;;;;-142.75;77.15;76227.78;5053163;28;20384;-82
2021/06/20 04:48:34;;;;;;;;;;;;;;;-142.75;76.86;76219.91;5056868;28;19935;-80
2021/06/20 04:50:59;;;;;;;;;;;;;;;-142.75;76.56;76212.03;5057951;28;20348;-82
2021/06/20 04:53:24;;;;;;;;;;;;;;;-142.75;76.44;76212.03;5057072;28;19938;-81
2021/06/20 04:55:49;;;;;;;;;;;;;;;-142.75;76.24;76210.06;5056649;28;19947;-82
2021/06/20 04:58:14;;;;;;;;;;;;;;;-142.75;75.54;76212.03;5056606;28;20374;-82
2021/06/20 05:00:40;;;;;;;;;;;;;;;-142.75;75.43;76229.75;5055724;28;20387;-81
2021/06/20 05:03:05;;;;;;;;;;;;;;;-142.75;75.53;76223.84;5056516;28;19916;-81
2021/06/20 05:05:30;;;;;;;;;;;;;;;-142.75;75.61;76202.19;5038084;28;19920;-81
2021/06/20 05:07:55;;;;;;;;;;;;;;;-142.75;75.00;76188.44;5056425;28;19912;-81
2021/06/20 05:10:20;;;;;;;;;;;;;;;-142.75;74.73;76170.72;5055882;28;20358;-80
2021/06/20 05:12:46;;;;;;;;;;;;;;;-142.75;74.74;76160.88;5056083;28;19913;-81
2021/06/20 05:15:11;;;;;;;;;;;;;;;-142.75;74.29;76147.09;5056313;28;19991;-81
2021/06/20 05:17:36;;;;;;;;;;;;;;;-142.75;74.20;76141.19;5056276;28;19963;-81
2021/06/20 05:20:01;;;;;;;;;;;;;;;-142.75;73.89;76125.44;5037751;28;19963;-80
2021/06/20 05:22:26;;;;;;;;;;;;;;;-142.75;73.77;76119.53;5056597;28;20378;-80
2021/06/20 05:24:52;;;;;;;;;;;;;;;-142.75;73.24;76127.41;5056030;28;19927;-83
2021/06/20 05:27:17;;;;;;;;;;;;;;;-142.75;73.22;76117.56;5038296;28;19962;-82
2021/06/20 05:29:43;;;;;;;;;;;;;;;-142.75;73.11;76119.53;5039142;28;20284;-83
2021/06/20 05:32:08;;;;;;;;;;;;;;;-142.75;72.62;76117.56;5055506;28;20293;-82
2021/06/20 05:34:33;;;;;;;;;;;;;;;-142.75;71.94;76121.50;5058298;28;19919;-83
2021/06/20 05:36:58;;;;;;;;;;;;;;;-142.75;71.97;76115.59;5038899;28;19919;-83
2021/06/20 05:39:24;;;;;;;;;;;;;;;-142.75;71.81;76109.69;5057231;28;19913;-83
2021/06/20 05:41:49;;;;;;;;;;;;;;;-142.75;72.58;76095.91;5057679;28;20389;-83
2021/06/20 05:44:14;;;;;;;;;;;;;;;-142.75;72.75;76076.22;5056791;28;19917;-82
2021/06/20 05:46:39;;;;;;;;;;;;;;;-142.75;71.69;76070.34;5039311;28;20002;-81
2021/06/20 05:49:04;;;;;;;;;;;;;;;-142.75;70.80;76068.38;5038471;28;19917;-82
2021/06/20 05:51:30;;;;;;;;;;;;;;;-142.75;71.01;76070.34;5057659;28;19921;-82
2021/06/20 05:53:55;;;;;;;;;;;;;;;-142.75;70.64;76072.31;5057523;28;20692;-81
2021/06/20 05:56:20;;;;;;;;;;;;;;;-142.75;71.00;76076.22;5059284;28;20018;-84
2021/06/20 05:58:46;;;;;;;;;;;;;;;-142.75;72.01;76074.25;5056401;28;20449;-82
2021/06/20 06:01:11;;;;;;;;;;;;;;;-142.75;71.81;76078.19;5038644;28;19967;-83
2021/06/20 06:03:36;;;;;;;;;;;;;;;-142.75;71.63;76082.13;5059845;28;20049;-79
2021/06/20 06:06:02;;;;;;;;;;;;;;;-142.75;71.97;76090.00;5040469;28;19912;-81
2021/06/20 06:08:27;;;;;;;;;;;;;;;-142.75;72.08;76093.94;5041194;28;19912;-81
2021/06/20 06:10:53;;;;;;;;;;;;;;;-142.75;71.25;76101.81;5039655;28;19984;-80
2021/06/20 06:13:18;;;;;;;;;;;;;;;-142.75;71.36;76097.88;5057850;28;19912;-81
2021/06/20 06:15:43;;;;;;;;;;;;;;;-142.75;71.66;76093.94;5059453;28;20305;-79
2021/06/20 06:18:08;;;;;;;;;;;;;;;-142.75;72.01;76076.22;5058593;28;19912;-80
2021/06/20 06:20:34;;;;;;;;;;;;;;;-142.75;72.25;76078.19;5039892;28;19916;-78
2021/06/20 06:22:59;;;;;;;;;;;;;;;-142.75;71.66;76070.34;5060232;28;19996;-81
2021/06/20 06:25:24;;;;;;;;;;;;;;;-142.75;70.23;76078.19;5041983;28;19950;-82
2021/06/20 06:27:49;;;;;;;;;;;;;;;-142.75;70.73;76052.63;5041246;28;19924;-79
2021/06/20 06:30:15;;;;;;;;;;;;;;;-142.75;70.80;76046.72;5059074;28;19913;-81
2021/06/20 06:32:41;;;;;;;;;;;;;;;-142.75;70.57;76030.97;5060154;28;19924;-80
2021/06/20 06:35:07;;;;;;;;;;;;;;;-142.75;69.29;76019.16;5058218;28;19920;-80
2021/06/20 06:37:32;;;;;;;;;;;;;;;-142.75;70.03;76005.38;5044023;28;20735;-78
2021/06/20 06:39:57;;;;;;;;;;;;;;;-142.75;69.93;76007.34;5062963;28;20393;-78
2021/06/20 06:42:25;;;;;;;;;;;;;;;-142.75;68.79;76032.94;5063290;28;19912;-79
2021/06/20 06:44:51;;;;;;;;;;;;;;;-142.75;68.61;76054.59;5060912;28;19917;-79
2021/06/20 06:47:16;;;;;;;;;;;;;;;-142.75;69.57;76038.84;5061670;28;19930;-80
2021/06/20 06:49:41;;;;;;;;;;;;;;;-142.75;69.18;76030.97;5058588;28;19955;-79
2021/06/20 06:52:06;;;;;;;;;;;;;;;-142.75;71.17;75936.50;5062731;28;19920;-80
2021/06/20 06:54:31;;;;;;;;;;;;;;;-142.75;69.57;75881.38;5045295;28;19962;-80
2021/06/20 06:56:56;;;;;;;;;;;;;;;-142.75;67.45;75834.16;5059622;28;19935;-81
2021/06/20 06:59:22;;;;;;;;;;;;;;;-142.75;67.01;75790.84;5040784;28;20007;-81
2021/06/20 07:01:47;;;;;;;;;;;;;;;-142.75;66.04;75759.38;5057515;28;20313;-82
2021/06/20 07:04:12;;;;;;;;;;;;;;;-142.75;64.44;75767.22;5039645;28;19920;-79
2021/06/20 07:06:37;;;;;;;;;;;;;;;-142.75;62.32;75790.84;5058676;28;20384;-81
2021/06/20 07:09:03;;;;;;;;;;;;;;;-142.75;65.09;75763.28;5061795;28;19913;-79
2021/06/20 07:11:28;;;;;;;;;;;;;;;-142.75;64.31;75755.44;5058773;28;20290;-78
2021/06/20 07:13:54;;;;;;;;;;;;;;;-142.75;63.73;75751.50;5042650;28;19919;-79
2021/06/20 07:16:19;;;;;;;;;;;;;;;-142.75;63.92;75755.44;5060299;28;19917;-80
2021/06/20 07:18:44;;;;;;;;;;;;;;;-142.75;61.81;75781.00;5040520;28;19923;-79
2021/06/20 07:21:09;;;;;;;;;;;;;;;-142.75;65.00;75757.41;5057886;28;20336;-79
2021/06/20 07:23:35;;;;;;;;;;;;;;;-142.75;62.86;75761.34;5059631;28;19917;-80
2021/06/20 07:26:00;;;;;;;;;;;;;;;-142.75;62.05;75806.59;5059941;28;19913;-80
2021/06/20 07:28:26;;;;;;;;;;;;;;;-142.75;65.35;75731.81;5060422;28;19924;-82
2021/06/20 07:30:51;;;;;;;;;;;;;;;-142.75;63.98;75619.63;5058762;28;20279;-79
2021/06/20 07:33:17;;;;;;;;;;;;;;;-142.75;63.23;75523.19;5059152;28;19920;-81
2021/06/20 07:35:45;;;;;;;;;;;;;;;-142.75;60.84;75468.09;5058199;28;19919;-79
2021/06/20 07:38:10;;;;;;;;;;;;;;;-142.75;60.13;75383.47;5040628;28;19912;-81
2021/06/20 07:40:35;;;;;;;;;;;;;;;-142.75;52.75;75357.91;5038973;28;19912;-79
2021/06/20 07:43:00;;;;;;;;;;;;;;;-142.75;56.63;75277.22;5039990;28;19943;-82
2021/06/20 07:45:25;;;;;;;;;;;;;;;-142.75;55.44;75302.78;5040779;28;19916;-80
2021/06/20 07:47:52;;;;;;;;;;;;;;;-142.75;57.25;75365.75;5058885;28;20337;-79
2021/06/20 07:50:18;;;;;;;;;;;;;;;-142.75;54.33;75434.66;5040034;28;19959;-80
2021/06/20 07:52:43;;;;;;;;;;;;;;;-142.75;55.56;75342.16;5058171;28;20370;-81
2021/06/20 07:55:09;;;;;;;;;;;;;;;-142.75;55.63;75277.22;5058072;28;19919;-81
2021/06/20 07:57:34;;;;;;;;;;;;;;;-142.75;56.04;75226.06;5040855;28;19935;-81
2021/06/20 07:59:59;;;;;;;;;;;;;;;-142.75;52.59;75204.41;5057657;28;19920;-80
2021/06/20 08:02:24;;;;;;;;;;;;;;;-142.75;52.00;75253.59;5038919;28;19912;-80
2021/06/20 08:04:50;;;;;;;;;;;;;;;-142.75;51.84;75336.25;5037844;28;19923;-82
2021/06/20 08:07:15;;;;;;;;;;;;;;;-142.75;53.61;75418.91;5056515;28;19913;-80
2021/06/20 08:09:41;;;;;;;;;;;;;;;-142.75;55.25;75385.44;5056997;28;20358;-80
2021/06/20 08:12:08;;;;;;;;;;;;;;;-142.75;55.15;75314.59;5057401;28;19927;-80
2021/06/20 08:14:33;;;;;;;;;;;;;;;-142.75;54.55;75263.44;5038024;28;19912;-80
2021/06/20 08:16:59;;;;;;;;;;;;;;;-142.75;53.28;75294.94;5038002;28;19942;-79
2021/06/20 08:19:24;;;;;;;;;;;;;;;-142.75;54.34;75336.25;5038455;28;20263;-81
2021/06/20 08:21:49;;;;;;;;;;;;;;;-142.75;54.18;75389.38;5037587;28;19920;-81
2021/06/20 08:24:15;;;;;;;;;;;;;;;-142.75;56.06;75405.13;5060710;28;19917;-84
2021/06/20 08:26:40;;;;;;;;;;;;;;;-142.75;56.39;75405.13;5060389;28;19976;-81
2021/06/20 08:29:06;;;;;;;;;;;;;;;-142.75;55.60;75436.59;5059106;28;19913;-81
2021/06/20 08:31:34;;;;;;;;;;;;;;;-142.75;55.02;75503.53;5057900;28;19921;-81
2021/06/20 08:33:59;;;;;;;;;;;;;;;-142.75;57.05;75515.31;5058357;28;20439;-83
2021/06/20 08:36:25;;;;;;;;;;;;;;;-142.75;57.68;75525.16;5040655;28;20007;-84
2021/06/20 08:38:50;;;;;;;;;;;;;;;-142.75;56.66;75442.50;5058426;28;19913;-82
2021/06/20 08:41:15;;;;;;;;;;;;;;;-142.75;56.29;75452.34;5041812;28;19963;-81
2021/06/20 08:43:41;;;;;;;;;;;;;;;-142.75;56.82;75452.34;5040005;28;19923;-81
2021/06/20 08:46:06;;;;;;;;;;;;;;;-142.75;55.66;75487.78;5041284;28;19913;-81
2021/06/20 08:48:35;;;;;;;;;;;;;;;-142.75;55.45;75519.25;5042093;28;19946;-82
2021/06/20 08:51:00;;;;;;;;;;;;;;;-142.75;55.82;75562.56;5059331;28;19966;-82
2021/06/20 08:53:25;;;;;;;;;;;;;;;-142.75;55.59;75562.56;5059037;28;19912;-83
2021/06/20 08:55:51;;;;;;;;;;;;;;;-142.75;56.43;75535.00;5040691;28;19920;-82
2021/06/20 08:58:19;;;;;;;;;;;;;;;-142.75;56.96;75533.03;5040784;28;19912;-82
2021/06/20 09:00:45;;;;;;;;;;;;;;;-142.75;57.26;75576.34;5059040;28;20046;-83
2021/06/20 09:03:10;;;;;;;;;;;;;;;-142.75;55.13;75607.81;5057786;28;20401;-82
2021/06/20 09:05:35;;;;;;;;;;;;;;;-142.75;59.04;75540.91;5059928;28;20023;-82
2021/06/20 09:08:00;;;;;;;;;;;;;;;-142.75;56.31;75479.91;5057544;28;19966;-83
2021/06/20 09:10:28;;;;;;;;;;;;;;;-142.75;55.67;75350.03;5057184;28;19916;-82
2021/06/20 09:12:54;;;;;;;;;;;;;;;-142.75;54.43;75373.63;5040049;28;19912;-82
2021/06/20 09:15:21;;;;;;;;;;;;;;;-142.75;52.42;75432.69;5057519;28;19912;-82
2021/06/20 09:17:57;;;;;;;;;;;;;;;-142.75;55.30;75479.91;5058274;28;19924;-81
2021/06/20 09:20:32;;;;;;;;;;;;;;;-142.75;56.78;75487.78;5059239;28;19919;-81
2021/06/20 09:22:58;;;;;;;;;;;;;;;-142.75;55.47;75533.03;5041014;28;20026;-82
2021/06/20 09:25:24;;;;;;;;;;;;;;;-142.75;56.12;75513.38;5042952;28;20409;-81
2021/06/20 09:27:53;;;;;;;;;;;;;;;-142.75;55.00;75367.72;5060046;28;19912;-83
2021/06/20 09:30:19;;;;;;;;;;;;;;;-142.75;53.47;75243.75;5040009;28;20389;-81
2021/06/20 09:32:51;;;;;;;;;;;;;;;-142.75;52.65;75133.56;5040809;28;19913;-81
2021/06/20 09:35:16;;;;;;;;;;;;;;;-142.75;50.38;75035.19;5039413;28;19916;-82
2021/06/20 09:37:48;;;;;;;;;;;;;;;-142.75;47.72;74968.28;5039811;28;20300;-80
2021/06/20 09:40:15;;;;;;;;;;;;;;;-142.75;44.76;74968.28;5040421;28;19912;-82
2021/06/20 09:42:41;;;;;;;;;;;;;;;-142.75;44.66;75043.03;5057306;28;20361;-84
2021/06/20 09:45:07;;;;;;;;;;;;;;;-142.75;47.78;75082.41;5040138;28;19924;-84
2021/06/20 09:47:37;;;;;;;;;;;;;;;-142.75;48.12;75082.41;5057619;28;19920;-83
2021/06/20 09:50:02;;;;;;;;;;;;;;;-142.75;47.49;75082.41;5056262;28;19932;-82
2021/06/20 09:52:32;;;;;;;;;;;;;;;-142.75;46.22;75115.84;5057789;28;19912;-81
2021/06/20 09:54:58;;;;;;;;;;;;;;;-142.75;45.85;75133.56;5058913;28;19924;-81
2021/06/20 09:57:23;;;;;;;;;;;;;;;-142.75;48.10;75184.72;5057979;28;20282;-80
2021/06/20 09:59:59;;;;;;;;;;;;;;;-142.75;48.41;75251.63;5058016;28;20500;-85
2021/06/20 10:02:26;;;;;;;;;;;;;;;-142.75;49.60;75324.44;5057790;28;19935;-81
2021/06/20 10:04:52;;;;;;;;;;;;;;;-142.75;51.45;75373.63;5040740;28;19928;-83
2021/06/20 10:07:17;;;;;;;;;;;;;;;-142.75;52.90;75418.91;5059034;28;20033;-83
2021/06/20 10:09:43;;;;;;;;;;;;;;;-142.75;51.54;75458.25;5058025;28;19917;-82
2021/06/20 10:12:08;;;;;;;;;;;;;;;-142.75;50.12;75316.56;5039581;28;19909;-80
2021/06/20 10:14:41;;;;;;;;;;;;;;;-142.75;48.61;75249.66;5041008;28;19913;-81
2021/06/20 10:17:08;;;;;;;;;;;;;;;-142.75;50.24;75190.63;5057089;28;19974;-80
2021/06/20 10:19:34;;;;;;;;;;;;;;;-142.75;48.55;75228.00;5058688;28;19919;-80
2021/06/20 10:22:00;;;;;;;;;;;;;;;-142.75;48.51;75267.38;5058185;28;19983;-82
2021/06/20 10:24:25;;;;;;;;;;;;;;;-142.75;51.34;75216.22;5039870;28;19917;-80
2021/06/20 10:26:50;;;;;;;;;;;;;;;-142.75;49.06;75168.97;5039405;28;20320;-80
2021/06/20 10:29:17;;;;;;;;;;;;;;;-142.75;46.31;75231.94;5058236;28;19912;-80
2021/06/20 10:31:42;;;;;;;;;;;;;;;-142.75;49.03;75269.34;5039359;28;19916;-80
2021/06/20 10:34:27;;;;;;;;;;;;;;;-142.75;51.39;75204.41;5058865;28;19936;-79
2021/06/20 10:36:54;;;;;;;;;;;;;;;-142.75;50.57;75123.72;5060250;28;19924;-79
2021/06/20 10:39:19;;;;;;;;;;;;;;;-142.75;45.00;75033.22;5076661;22;19923;-80
2021/06/20 10:41:45;;;;;;;;;;;;;;;-142.75;47.15;75033.22;5071788;28;19925;-80
2021/06/20 10:44:10;;;;;;;;;;;;;;;-142.75;44.38;75086.34;5055483;28;19927;-79
2021/06/20 10:46:38;;;;;;;;;;;;;;;-142.75;47.69;75141.44;5055820;28;19912;-81
2021/06/20 10:49:12;;;;;;;;;;;;;;;-142.75;48.57;75174.88;5055215;28;19912;-82
2021/06/20 10:51:38;;;;;;;;;;;;;;;-142.75;47.37;75198.50;5063784;28;19974;-80
2021/06/20 10:54:03;;;;;;;;;;;;;;;-142.75;49.72;75245.72;5038940;28;20333;-83
2021/06/20 10:56:30;;;;;;;;;;;;;;;-142.75;50.14;75302.78;5048487;28;19948;-80
2021/06/20 10:58:56;;;;;;;;;;;;;;;-142.75;49.85;75338.22;5042373;28;19927;-81
2021/06/20 11:01:22;;;;;;;;;;;;;;;-142.75;49.38;75361.84;5060546;28;20310;-81
2021/06/20 11:03:58;;;;;;;;;;;;;;;-142.75;52.90;75306.72;5056893;28;19920;-79
2021/06/20 11:06:24;;;;;;;;;;;;;;;-142.75;49.10;75107.97;5053887;28;19919;-80
2021/06/20 11:08:53;;;;;;;;;;;;;;;-142.75;45.35;74974.19;5063651;28;20398;-82
2021/06/20 11:11:18;;;;;;;;;;;;;;;-142.75;42.75;74948.59;5042316;28;19912;-79
2021/06/20 11:13:45;;;;;;;;;;;;;;;-142.75;45.26;75039.13;5044167;28;19912;-81
2021/06/20 11:16:13;;;;;;;;;;;;;;;-142.75;46.92;75086.34;5043210;28;19912;-81
2021/06/20 11:18:39;;;;;;;;;;;;;;;-142.75;47.33;75102.06;5063353;28;19912;-80
2021/06/20 11:21:04;;;;;;;;;;;;;;;-142.75;45.81;75159.16;5062072;28;19995;-81
2021/06/20 11:23:30;;;;;;;;;;;;;;;-142.75;49.16;75163.09;5059538;28;19913;-82
2021/06/20 11:25:59;;;;;;;;;;;;;;;-142.75;47.50;75206.38;5039107;28;19913;-82
2021/06/20 11:28:24;;;;;;;;;;;;;;;-142.75;47.90;75251.63;5040300;28;19912;-81
2021/06/20 11:30:50;;;;;;;;;;;;;;;-142.75;49.99;75316.56;5041585;28;20370;-80
2021/06/20 11:33:26;;;;;;;;;;;;;;;-142.75;48.60;75357.91;5061403;28;20452;-81
2021/06/20 11:35:51;;;;;;;;;;;;;;;-142.75;49.29;75357.91;5045040;28;19921;-78
2021/06/20 11:38:26;;;;;;;;;;;;;;;-142.75;50.42;75361.84;5043839;28;19913;-82
2021/06/20 11:40:53;;;;;;;;;;;;;;;-142.75;50.30;75342.16;5066053;28;19916;-80
2021/06/20 11:43:18;;;;;;;;;;;;;;;-142.75;50.43;75275.25;5065516;28;19916;-82
2021/06/20 11:45:43;;;;;;;;;;;;;;;-142.75;50.05;75273.28;5062600;28;20292;-80
2021/06/20 11:48:09;;;;;;;;;;;;;;;-142.75;50.83;75283.13;5056563;28;19912;-78
2021/06/20 11:50:36;;;;;;;;;;;;;;;-142.75;49.42;75310.66;5040638;28;19912;-78
2021/06/20 11:53:02;;;;;;;;;;;;;;;-142.75;50.87;75287.06;5072877;28;19970;-81
2021/06/20 11:55:29;;;;;;;;;;;;;;;-142.75;50.55;75235.88;5068878;28;19912;-82
2021/06/20 11:57:54;;;;;;;;;;;;;;;-142.75;49.37;75208.34;5064303;28;20282;-81
2021/06/20 12:00:21;;;;;;;;;;;;;;;-142.75;50.56;75218.19;5046956;28;19919;-81
2021/06/20 12:02:57;;;;;;;;;;;;;;;-142.75;49.04;75228.00;5041760;28;19931;-80
2021/06/20 12:05:22;;;;;;;;;;;;;;;-142.75;50.10;75251.63;5045330;28;19916;-80
2021/06/20 12:07:50;;;;;;;;;;;;;;;-142.75;51.05;75267.38;5040464;28;19912;-81
2021/06/20 12:10:17;;;;;;;;;;;;;;;-142.75;51.41;75259.50;5063105;28;19919;-80
2021/06/20 12:12:43;;;;;;;;;;;;;;;-142.75;50.31;75247.69;5061911;28;19920;-82
2021/06/20 12:15:08;;;;;;;;;;;;;;;-142.75;48.94;75245.72;5063171;28;19916;-81
2021/06/20 12:17:33;;;;;;;;;;;;;;;-142.75;49.61;75239.81;5060974;28;20426;-80
2021/06/20 12:19:59;;;;;;;;;;;;;;;-142.75;51.75;75237.84;5061863;28;19912;-83
2021/06/20 12:22:24;;;;;;;;;;;;;;;-142.75;50.67;75231.94;5063612;28;19916;-80
2021/06/20 12:25:01;;;;;;;;;;;;;;;-142.75;49.78;75229.97;5064569;28;19912;-82